sensor_id;sensor_type;location;lat;lon;timestamp;temperature;humidity
15328;DHT22;7764;51.430;6.840;2023-08-17T00:01:18;18.30;99.90
15328;DHT22;7764;51.430;6.840;2023-08-17T00:03:47;18.30;99.90
15328;DHT22;7764;51.430;6.840;2023-08-17T00:06:13;18.30;99.90
15328;DHT22;7764;51.430;6.840;2023-08-17T00:08:42;18.30;99.90
15328;DHT22;7764;51.430;6.840;2023-08-17T00:11:08;18.30;99.90
15328;DHT22;7764;51.430;6.840;2023-08-17T00:13:35;18.20;99.90
15328;DHT22;7764;51.430;6.840;2023-08-17T00:16:03;18.20;99.90
15328;DHT22;7764;51.430;6.840;2023-08-17T00:18:30;18.20;99.90
15328;DHT22;7764;51.430;6.840;2023-08-17T00:20:58;18.20;99.90
15328;DHT22;7764;51.430;6.840;2023-08-17T00:23:25;18.20;99.90
15328;DHT22;7764;51.430;6.840;2023-08-17T00:25:53;18.20;99.90
15328;DHT22;7764;51.430;6.840;2023-08-17T00:28:20;18.20;99.90
15328;DHT22;7764;51.430;6.840;2023-08-17T00:30:47;18.10;99.90
15328;DHT22;7764;51.430;6.840;2023-08-17T00:33:14;18.10;99.90
15328;DHT22;7764;51.430;6.840;2023-08-17T00:35:41;18.10;99.90
15328;DHT22;7764;51.430;6.840;2023-08-17T00:38:09;18.10;99.90
15328;DHT22;7764;51.430;6.840;2023-08-17T00:40:36;18.10;99.90
15328;DHT22;7764;51.430;6.840;2023-08-17T00:43:03;18.10;99.90
15328;DHT22;7764;51.430;6.840;2023-08-17T00:45:31;18.10;99.90
15328;DHT22;7764;51.430;6.840;2023-08-17T00:47:58;18.10;99.90
15328;DHT22;7764;51.430;6.840;2023-08-17T00:50:27;18.10;99.90
15328;DHT22;7764;51.430;6.840;2023-08-17T00:52:55;18.10;99.90
15328;DHT22;7764;51.430;6.840;2023-08-17T00:55:24;18.10;99.90
15328;DHT22;7764;51.430;6.840;2023-08-17T00:57:52;18.10;99.90
15328;DHT22;7764;51.430;6.840;2023-08-17T01:00:20;18.10;99.90
15328;DHT22;7764;51.430;6.840;2023-08-17T01:02:47;18.00;99.90
15328;DHT22;7764;51.430;6.840;2023-08-17T01:05:15;18.10;99.90
15328;DHT22;7764;51.430;6.840;2023-08-17T01:07:42;18.10;99.90
15328;DHT22;7764;51.430;6.840;2023-08-17T01:10:09;18.10;99.90
15328;DHT22;7764;51.430;6.840;2023-08-17T01:12:44;18.10;99.90
15328;DHT22;7764;51.430;6.840;2023-08-17T01:15:17;18.10;99.90
15328;DHT22;7764;51.430;6.840;2023-08-17T01:17:52;18.10;99.90
15328;DHT22;7764;51.430;6.840;2023-08-17T01:20:21;18.10;99.90
15328;DHT22;7764;51.430;6.840;2023-08-17T01:22:51;18.10;99.90
15328;DHT22;7764;51.430;6.840;2023-08-17T01:25:20;18.10;99.90
15328;DHT22;7764;51.430;6.840;2023-08-17T01:27:47;18.10;99.90
15328;DHT22;7764;51.430;6.840;2023-08-17T01:30:16;18.10;99.90
15328;DHT22;7764;51.430;6.840;2023-08-17T01:32:48;18.10;99.90
15328;DHT22;7764;51.430;6.840;2023-08-17T01:35:24;18.10;99.90
15328;DHT22;7764;51.430;6.840;2023-08-17T01:37:57;18.10;99.90
15328;DHT22;7764;51.430;6.840;2023-08-17T01:40:28;18.10;99.90
15328;DHT22;7764;51.430;6.840;2023-08-17T01:42:56;18.00;99.90
15328;DHT22;7764;51.430;6.840;2023-08-17T01:45:23;18.00;99.90
15328;DHT22;7764;51.430;6.840;2023-08-17T01:47:50;18.00;99.90
15328;DHT22;7764;51.430;6.840;2023-08-17T01:50:16;18.00;99.90
15328;DHT22;7764;51.430;6.840;2023-08-17T01:52:43;18.00;99.90
15328;DHT22;7764;51.430;6.840;2023-08-17T01:55:10;18.00;99.90
15328;DHT22;7764;51.430;6.840;2023-08-17T01:57:39;18.10;99.90
15328;DHT22;7764;51.430;6.840;2023-08-17T02:00:07;18.00;99.90
15328;DHT22;7764;51.430;6.840;2023-08-17T02:02:36;18.00;99.90
15328;DHT22;7764;51.430;6.840;2023-08-17T02:05:03;18.00;99.90
15328;DHT22;7764;51.430;6.840;2023-08-17T02:07:30;18.00;99.90
15328;DHT22;7764;51.430;6.840;2023-08-17T02:09:57;18.00;99.90
15328;DHT22;7764;51.430;6.840;2023-08-17T02:12:24;18.00;99.90
15328;DHT22;7764;51.430;6.840;2023-08-17T02:14:52;18.00;99.90
15328;DHT22;7764;51.430;6.840;2023-08-17T02:17:19;18.00;99.90
15328;DHT22;7764;51.430;6.840;2023-08-17T02:19:48;18.00;99.90
15328;DHT22;7764;51.430;6.840;2023-08-17T02:22:15;18.10;99.90
15328;DHT22;7764;51.430;6.840;2023-08-17T02:24:42;18.00;99.90
15328;DHT22;7764;51.430;6.840;2023-08-17T02:27:09;18.10;99.90
15328;DHT22;7764;51.430;6.840;2023-08-17T02:29:36;18.00;99.90
15328;DHT22;7764;51.430;6.840;2023-08-17T02:32:05;17.90;99.90
15328;DHT22;7764;51.430;6.840;2023-08-17T02:34:32;17.90;99.90
15328;DHT22;7764;51.430;6.840;2023-08-17T02:36:59;17.90;99.90
15328;DHT22;7764;51.430;6.840;2023-08-17T02:39:25;18.00;99.90
15328;DHT22;7764;51.430;6.840;2023-08-17T02:41:52;17.90;99.90
15328;DHT22;7764;51.430;6.840;2023-08-17T02:44:20;17.90;99.90
15328;DHT22;7764;51.430;6.840;2023-08-17T02:46:47;17.90;99.90
15328;DHT22;7764;51.430;6.840;2023-08-17T02:49:15;17.90;99.90
15328;DHT22;7764;51.430;6.840;2023-08-17T02:51:42;17.90;99.90
15328;DHT22;7764;51.430;6.840;2023-08-17T02:54:09;17.90;99.90
15328;DHT22;7764;51.430;6.840;2023-08-17T02:56:36;17.90;99.90
15328;DHT22;7764;51.430;6.840;2023-08-17T02:59:03;17.80;99.90
15328;DHT22;7764;51.430;6.840;2023-08-17T03:01:30;17.80;99.90
15328;DHT22;7764;51.430;6.840;2023-08-17T03:03:57;17.80;99.90
15328;DHT22;7764;51.430;6.840;2023-08-17T03:06:26;17.80;99.90
15328;DHT22;7764;51.430;6.840;2023-08-17T03:08:52;17.80;99.90
15328;DHT22;7764;51.430;6.840;2023-08-17T03:11:20;17.80;99.90
15328;DHT22;7764;51.430;6.840;2023-08-17T03:13:47;17.80;99.90
15328;DHT22;7764;51.430;6.840;2023-08-17T03:16:14;17.80;99.90
15328;DHT22;7764;51.430;6.840;2023-08-17T03:18:41;17.80;99.90
15328;DHT22;7764;51.430;6.840;2023-08-17T03:21:08;17.80;99.90
15328;DHT22;7764;51.430;6.840;2023-08-17T03:23:36;17.80;99.90
15328;DHT22;7764;51.430;6.840;2023-08-17T03:26:03;17.70;99.90
15328;DHT22;7764;51.430;6.840;2023-08-17T03:28:30;17.70;99.90
15328;DHT22;7764;51.430;6.840;2023-08-17T03:30:57;17.70;99.90
15328;DHT22;7764;51.430;6.840;2023-08-17T03:33:26;17.70;99.90
15328;DHT22;7764;51.430;6.840;2023-08-17T03:35:53;17.70;99.90
15328;DHT22;7764;51.430;6.840;2023-08-17T03:38:19;17.70;99.90
15328;DHT22;7764;51.430;6.840;2023-08-17T03:40:48;17.70;99.90
15328;DHT22;7764;51.430;6.840;2023-08-17T03:43:15;17.70;99.90
15328;DHT22;7764;51.430;6.840;2023-08-17T03:45:42;17.70;99.90
15328;DHT22;7764;51.430;6.840;2023-08-17T03:48:10;18.20;99.90
15328;DHT22;7764;51.430;6.840;2023-08-17T03:50:37;17.90;99.90
15328;DHT22;7764;51.430;6.840;2023-08-17T03:53:04;17.80;99.90
15328;DHT22;7764;51.430;6.840;2023-08-17T03:55:31;17.80;99.90
15328;DHT22;7764;51.430;6.840;2023-08-17T03:58:00;17.90;99.90
15328;DHT22;7764;51.430;6.840;2023-08-17T04:00:28;17.80;99.90
15328;DHT22;7764;51.430;6.840;2023-08-17T04:02:54;17.80;99.90
15328;DHT22;7764;51.430;6.840;2023-08-17T04:05:21;17.80;99.90
15328;DHT22;7764;51.430;6.840;2023-08-17T04:07:48;17.70;99.90
15328;DHT22;7764;51.430;6.840;2023-08-17T04:10:15;17.80;99.90
15328;DHT22;7764;51.430;6.840;2023-08-17T04:12:42;17.80;99.90
15328;DHT22;7764;51.430;6.840;2023-08-17T04:15:11;17.80;99.90
15328;DHT22;7764;51.430;6.840;2023-08-17T04:17:38;17.80;99.90
15328;DHT22;7764;51.430;6.840;2023-08-17T04:20:05;17.80;99.90
15328;DHT22;7764;51.430;6.840;2023-08-17T04:22:32;17.80;99.90
15328;DHT22;7764;51.430;6.840;2023-08-17T04:24:59;17.90;99.90
15328;DHT22;7764;51.430;6.840;2023-08-17T04:27:26;17.80;99.90
15328;DHT22;7764;51.430;6.840;2023-08-17T04:29:53;17.90;99.90
15328;DHT22;7764;51.430;6.840;2023-08-17T04:44:40;17.70;99.90
15328;DHT22;7764;51.430;6.840;2023-08-17T04:47:08;17.70;99.90
15328;DHT22;7764;51.430;6.840;2023-08-17T04:49:36;17.70;99.90
15328;DHT22;7764;51.430;6.840;2023-08-17T04:52:03;17.70;99.90
15328;DHT22;7764;51.430;6.840;2023-08-17T04:54:31;17.70;99.90
15328;DHT22;7764;51.430;6.840;2023-08-17T04:56:57;17.70;99.90
15328;DHT22;7764;51.430;6.840;2023-08-17T04:59:24;17.70;99.90
15328;DHT22;7764;51.430;6.840;2023-08-17T05:01:51;17.70;99.90
15328;DHT22;7764;51.430;6.840;2023-08-17T05:04:19;17.70;99.90
15328;DHT22;7764;51.430;6.840;2023-08-17T05:06:48;17.70;99.90
15328;DHT22;7764;51.430;6.840;2023-08-17T05:09:14;17.70;99.90
15328;DHT22;7764;51.430;6.840;2023-08-17T05:11:41;17.80;99.90
15328;DHT22;7764;51.430;6.840;2023-08-17T05:14:08;17.80;99.90
15328;DHT22;7764;51.430;6.840;2023-08-17T05:16:35;17.80;99.90
15328;DHT22;7764;51.430;6.840;2023-08-17T05:19:02;17.90;99.90
15328;DHT22;7764;51.430;6.840;2023-08-17T05:21:29;17.90;99.90
15328;DHT22;7764;51.430;6.840;2023-08-17T05:23:57;18.00;99.90
15328;DHT22;7764;51.430;6.840;2023-08-17T05:26:24;17.90;99.90
15328;DHT22;7764;51.430;6.840;2023-08-17T05:28:51;18.00;99.90
15328;DHT22;7764;51.430;6.840;2023-08-17T05:31:18;18.00;99.90
15328;DHT22;7764;51.430;6.840;2023-08-17T05:33:45;18.00;99.90
15328;DHT22;7764;51.430;6.840;2023-08-17T05:36:12;18.10;99.90
15328;DHT22;7764;51.430;6.840;2023-08-17T05:38:40;18.10;99.90
15328;DHT22;7764;51.430;6.840;2023-08-17T05:41:08;18.10;99.90
15328;DHT22;7764;51.430;6.840;2023-08-17T05:43:35;18.10;99.90
15328;DHT22;7764;51.430;6.840;2023-08-17T05:46:02;18.10;99.90
15328;DHT22;7764;51.430;6.840;2023-08-17T05:48:29;18.10;99.90
15328;DHT22;7764;51.430;6.840;2023-08-17T05:50:56;18.10;99.90
15328;DHT22;7764;51.430;6.840;2023-08-17T05:53:23;18.10;99.90
15328;DHT22;7764;51.430;6.840;2023-08-17T05:55:50;18.10;99.90
15328;DHT22;7764;51.430;6.840;2023-08-17T05:58:19;18.00;99.90
15328;DHT22;7764;51.430;6.840;2023-08-17T06:00:46;17.90;99.90
15328;DHT22;7764;51.430;6.840;2023-08-17T06:03:13;18.00;99.90
15328;DHT22;7764;51.430;6.840;2023-08-17T06:05:39;17.90;99.90
15328;DHT22;7764;51.430;6.840;2023-08-17T06:08:06;17.90;99.90
15328;DHT22;7764;51.430;6.840;2023-08-17T06:10:33;17.90;99.90
15328;DHT22;7764;51.430;6.840;2023-08-17T06:13:00;17.90;99.90
15328;DHT22;7764;51.430;6.840;2023-08-17T06:15:28;18.00;99.90
15328;DHT22;7764;51.430;6.840;2023-08-17T06:17:55;18.00;99.90
15328;DHT22;7764;51.430;6.840;2023-08-17T06:20:22;18.00;99.90
15328;DHT22;7764;51.430;6.840;2023-08-17T06:22:49;18.00;99.90
15328;DHT22;7764;51.430;6.840;2023-08-17T06:25:16;18.10;99.90
15328;DHT22;7764;51.430;6.840;2023-08-17T06:27:43;18.00;99.90
15328;DHT22;7764;51.430;6.840;2023-08-17T06:30:11;18.10;99.90
15328;DHT22;7764;51.430;6.840;2023-08-17T06:32:40;18.10;99.90
15328;DHT22;7764;51.430;6.840;2023-08-17T06:35:07;18.10;99.90
15328;DHT22;7764;51.430;6.840;2023-08-17T06:37:35;18.20;99.90
15328;DHT22;7764;51.430;6.840;2023-08-17T06:40:04;18.30;99.90
15328;DHT22;7764;51.430;6.840;2023-08-17T06:42:32;18.30;99.90
15328;DHT22;7764;51.430;6.840;2023-08-17T06:44:59;18.20;99.90
15328;DHT22;7764;51.430;6.840;2023-08-17T06:47:26;18.10;99.90
15328;DHT22;7764;51.430;6.840;2023-08-17T06:49:54;18.20;99.90
15328;DHT22;7764;51.430;6.840;2023-08-17T06:52:23;18.30;99.90
15328;DHT22;7764;51.430;6.840;2023-08-17T06:54:50;18.30;99.90
15328;DHT22;7764;51.430;6.840;2023-08-17T06:57:17;18.40;99.90
15328;DHT22;7764;51.430;6.840;2023-08-17T06:59:44;18.30;99.90
15328;DHT22;7764;51.430;6.840;2023-08-17T07:02:12;18.30;99.90
15328;DHT22;7764;51.430;6.840;2023-08-17T07:04:39;18.30;99.90
15328;DHT22;7764;51.430;6.840;2023-08-17T07:07:07;18.30;99.90
15328;DHT22;7764;51.430;6.840;2023-08-17T07:09:34;18.30;99.90
15328;DHT22;7764;51.430;6.840;2023-08-17T07:12:01;18.40;99.90
15328;DHT22;7764;51.430;6.840;2023-08-17T07:14:28;18.30;99.90
15328;DHT22;7764;51.430;6.840;2023-08-17T07:16:55;18.40;99.90
15328;DHT22;7764;51.430;6.840;2023-08-17T07:19:22;18.40;99.90
15328;DHT22;7764;51.430;6.840;2023-08-17T07:21:49;18.40;99.90
15328;DHT22;7764;51.430;6.840;2023-08-17T07:24:17;18.30;99.90
15328;DHT22;7764;51.430;6.840;2023-08-17T07:26:44;18.40;99.90
15328;DHT22;7764;51.430;6.840;2023-08-17T07:29:11;18.40;99.90
15328;DHT22;7764;51.430;6.840;2023-08-17T07:31:38;18.40;99.90
15328;DHT22;7764;51.430;6.840;2023-08-17T07:34:05;18.50;99.90
15328;DHT22;7764;51.430;6.840;2023-08-17T07:36:33;18.50;99.90
15328;DHT22;7764;51.430;6.840;2023-08-17T07:39:00;18.50;99.90
15328;DHT22;7764;51.430;6.840;2023-08-17T07:41:28;18.50;99.90
15328;DHT22;7764;51.430;6.840;2023-08-17T07:43:55;18.70;99.90
15328;DHT22;7764;51.430;6.840;2023-08-17T07:46:22;18.70;99.90
15328;DHT22;7764;51.430;6.840;2023-08-17T07:48:48;18.60;99.90
15328;DHT22;7764;51.430;6.840;2023-08-17T07:51:15;18.60;99.90
15328;DHT22;7764;51.430;6.840;2023-08-17T07:53:42;18.70;99.90
15328;DHT22;7764;51.430;6.840;2023-08-17T07:56:11;18.70;99.90
15328;DHT22;7764;51.430;6.840;2023-08-17T07:58:39;18.70;99.90
15328;DHT22;7764;51.430;6.840;2023-08-17T08:01:06;18.70;99.90
15328;DHT22;7764;51.430;6.840;2023-08-17T08:03:33;18.70;99.90
15328;DHT22;7764;51.430;6.840;2023-08-17T08:06:00;18.80;99.90
15328;DHT22;7764;51.430;6.840;2023-08-17T08:08:27;18.80;99.90
15328;DHT22;7764;51.430;6.840;2023-08-17T08:10:54;19.00;99.90
15328;DHT22;7764;51.430;6.840;2023-08-17T08:13:21;19.00;99.90
15328;DHT22;7764;51.430;6.840;2023-08-17T08:15:49;19.10;99.90
15328;DHT22;7764;51.430;6.840;2023-08-17T08:18:16;19.10;99.90
15328;DHT22;7764;51.430;6.840;2023-08-17T08:20:43;19.20;99.90
15328;DHT22;7764;51.430;6.840;2023-08-17T08:23:10;19.30;99.90
15328;DHT22;7764;51.430;6.840;2023-08-17T08:25:37;19.30;99.90
15328;DHT22;7764;51.430;6.840;2023-08-17T08:28:04;19.40;99.90
15328;DHT22;7764;51.430;6.840;2023-08-17T08:30:31;19.40;99.90
15328;DHT22;7764;51.430;6.840;2023-08-17T08:32:59;19.40;99.90
15328;DHT22;7764;51.430;6.840;2023-08-17T08:35:28;19.30;99.90
15328;DHT22;7764;51.430;6.840;2023-08-17T08:37:55;19.40;99.90
15328;DHT22;7764;51.430;6.840;2023-08-17T08:40:27;19.50;99.90
15328;DHT22;7764;51.430;6.840;2023-08-17T08:42:57;19.50;99.90
15328;DHT22;7764;51.430;6.840;2023-08-17T09:02:49;19.50;99.90
15328;DHT22;7764;51.430;6.840;2023-08-17T09:05:17;19.60;99.90
15328;DHT22;7764;51.430;6.840;2023-08-17T09:07:48;19.80;99.90
15328;DHT22;7764;51.430;6.840;2023-08-17T09:10:16;19.80;99.90
15328;DHT22;7764;51.430;6.840;2023-08-17T09:12:45;19.80;99.90
15328;DHT22;7764;51.430;6.840;2023-08-17T09:15:12;19.70;99.90
15328;DHT22;7764;51.430;6.840;2023-08-17T09:17:39;19.90;99.90
15328;DHT22;7764;51.430;6.840;2023-08-17T09:20:08;19.80;99.90
15328;DHT22;7764;51.430;6.840;2023-08-17T09:22:40;19.70;99.90
15328;DHT22;7764;51.430;6.840;2023-08-17T09:25:10;19.80;99.90
15328;DHT22;7764;51.430;6.840;2023-08-17T09:27:37;19.70;99.90
15328;DHT22;7764;51.430;6.840;2023-08-17T09:30:06;19.70;99.90
15328;DHT22;7764;51.430;6.840;2023-08-17T09:32:33;19.80;99.90
15328;DHT22;7764;51.430;6.840;2023-08-17T09:35:01;19.90;99.90
15328;DHT22;7764;51.430;6.840;2023-08-17T09:37:29;19.80;99.90
15328;DHT22;7764;51.430;6.840;2023-08-17T09:39:56;19.80;99.90
15328;DHT22;7764;51.430;6.840;2023-08-17T09:42:24;19.80;99.90
15328;DHT22;7764;51.430;6.840;2023-08-17T09:44:51;19.80;99.90
15328;DHT22;7764;51.430;6.840;2023-08-17T09:47:19;19.90;99.90
15328;DHT22;7764;51.430;6.840;2023-08-17T09:49:48;20.00;99.90
15328;DHT22;7764;51.430;6.840;2023-08-17T09:52:16;20.10;99.90
15328;DHT22;7764;51.430;6.840;2023-08-17T09:54:43;20.20;99.90
15328;DHT22;7764;51.430;6.840;2023-08-17T09:57:12;20.30;99.90
15328;DHT22;7764;51.430;6.840;2023-08-17T09:59:40;20.20;99.90
15328;DHT22;7764;51.430;6.840;2023-08-17T10:02:16;20.20;99.90
15328;DHT22;7764;51.430;6.840;2023-08-17T10:04:45;20.30;99.90
15328;DHT22;7764;51.430;6.840;2023-08-17T10:07:19;20.40;99.90
15328;DHT22;7764;51.430;6.840;2023-08-17T10:10:02;20.30;99.90
15328;DHT22;7764;51.430;6.840;2023-08-17T10:12:32;20.40;99.90
15328;DHT22;7764;51.430;6.840;2023-08-17T10:15:07;20.40;99.90
15328;DHT22;7764;51.430;6.840;2023-08-17T10:17:44;20.50;99.90
15328;DHT22;7764;51.430;6.840;2023-08-17T10:20:17;20.40;99.90
15328;DHT22;7764;51.430;6.840;2023-08-17T10:22:51;20.40;99.90
15328;DHT22;7764;51.430;6.840;2023-08-17T10:25:20;20.40;99.90
15328;DHT22;7764;51.430;6.840;2023-08-17T10:27:49;20.20;99.90
15328;DHT22;7764;51.430;6.840;2023-08-17T10:30:19;20.30;99.90
15328;DHT22;7764;51.430;6.840;2023-08-17T10:32:46;20.30;99.90
15328;DHT22;7764;51.430;6.840;2023-08-17T10:35:13;20.20;99.90
15328;DHT22;7764;51.430;6.840;2023-08-17T10:37:41;20.40;99.90
15328;DHT22;7764;51.430;6.840;2023-08-17T10:40:08;20.50;99.90
15328;DHT22;7764;51.430;6.840;2023-08-17T10:42:36;20.60;99.90
15328;DHT22;7764;51.430;6.840;2023-08-17T10:45:27;20.70;99.90
15328;DHT22;7764;51.430;6.840;2023-08-17T10:48:25;20.80;99.90
15328;DHT22;7764;51.430;6.840;2023-08-17T10:51:00;20.90;99.90
15328;DHT22;7764;51.430;6.840;2023-08-17T10:53:34;21.00;99.90
15328;DHT22;7764;51.430;6.840;2023-08-17T10:56:01;21.10;99.90
15328;DHT22;7764;51.430;6.840;2023-08-17T10:58:32;21.20;99.90
15328;DHT22;7764;51.430;6.840;2023-08-17T11:01:01;21.20;99.90
15328;DHT22;7764;51.430;6.840;2023-08-17T11:03:28;21.10;99.90
15328;DHT22;7764;51.430;6.840;2023-08-17T11:05:56;21.50;99.90
15328;DHT22;7764;51.430;6.840;2023-08-17T11:08:27;21.30;99.90
15328;DHT22;7764;51.430;6.840;2023-08-17T11:10:59;21.30;99.90
15328;DHT22;7764;51.430;6.840;2023-08-17T11:13:29;21.30;99.90
15328;DHT22;7764;51.430;6.840;2023-08-17T11:15:58;21.40;99.90
15328;DHT22;7764;51.430;6.840;2023-08-17T11:18:26;21.40;99.90
15328;DHT22;7764;51.430;6.840;2023-08-17T11:20:57;21.30;99.90
15328;DHT22;7764;51.430;6.840;2023-08-17T11:23:28;21.30;99.90
15328;DHT22;7764;51.430;6.840;2023-08-17T11:25:55;21.30;99.90
15328;DHT22;7764;51.430;6.840;2023-08-17T11:28:23;21.50;99.90
15328;DHT22;7764;51.430;6.840;2023-08-17T11:30:56;21.60;99.90
15328;DHT22;7764;51.430;6.840;2023-08-17T11:33:27;21.40;99.90
15328;DHT22;7764;51.430;6.840;2023-08-17T11:35:55;21.50;99.90
15328;DHT22;7764;51.430;6.840;2023-08-17T11:38:22;21.50;99.90
15328;DHT22;7764;51.430;6.840;2023-08-17T11:40:49;21.50;99.90
15328;DHT22;7764;51.430;6.840;2023-08-17T11:43:16;21.70;99.90
15328;DHT22;7764;51.430;6.840;2023-08-17T11:45:43;21.50;99.90
15328;DHT22;7764;51.430;6.840;2023-08-17T11:48:10;21.60;99.90
15328;DHT22;7764;51.430;6.840;2023-08-17T11:50:39;21.40;99.90
15328;DHT22;7764;51.430;6.840;2023-08-17T11:53:06;21.50;99.90
15328;DHT22;7764;51.430;6.840;2023-08-17T11:55:33;21.60;99.90
15328;DHT22;7764;51.430;6.840;2023-08-17T11:58:02;21.40;99.90
15328;DHT22;7764;51.430;6.840;2023-08-17T12:00:34;21.60;99.90
15328;DHT22;7764;51.430;6.840;2023-08-17T12:03:02;21.80;99.90
15328;DHT22;7764;51.430;6.840;2023-08-17T12:05:31;21.80;99.90
15328;DHT22;7764;51.430;6.840;2023-08-17T12:08:00;21.50;99.90
15328;DHT22;7764;51.430;6.840;2023-08-17T12:10:27;21.30;99.90
15328;DHT22;7764;51.430;6.840;2023-08-17T12:12:58;21.40;99.90
15328;DHT22;7764;51.430;6.840;2023-08-17T12:15:30;21.40;99.90
15328;DHT22;7764;51.430;6.840;2023-08-17T12:17:58;21.50;99.90
15328;DHT22;7764;51.430;6.840;2023-08-17T12:20:25;21.60;99.90
15328;DHT22;7764;51.430;6.840;2023-08-17T12:22:52;21.50;99.90
15328;DHT22;7764;51.430;6.840;2023-08-17T12:25:22;21.50;99.90
15328;DHT22;7764;51.430;6.840;2023-08-17T12:27:50;21.40;99.90
15328;DHT22;7764;51.430;6.840;2023-08-17T12:30:25;21.40;99.90
15328;DHT22;7764;51.430;6.840;2023-08-17T12:32:52;21.50;99.90
15328;DHT22;7764;51.430;6.840;2023-08-17T12:35:19;21.50;99.90
15328;DHT22;7764;51.430;6.840;2023-08-17T12:37:49;21.60;99.90
15328;DHT22;7764;51.430;6.840;2023-08-17T12:40:16;21.40;99.90
15328;DHT22;7764;51.430;6.840;2023-08-17T12:42:45;21.40;99.90
15328;DHT22;7764;51.430;6.840;2023-08-17T12:45:12;21.40;99.90
15328;DHT22;7764;51.430;6.840;2023-08-17T12:47:39;21.40;99.90
15328;DHT22;7764;51.430;6.840;2023-08-17T12:50:07;21.60;99.90
15328;DHT22;7764;51.430;6.840;2023-08-17T12:52:34;21.50;99.90
15328;DHT22;7764;51.430;6.840;2023-08-17T12:55:01;21.50;99.90
15328;DHT22;7764;51.430;6.840;2023-08-17T12:57:28;21.60;99.90
15328;DHT22;7764;51.430;6.840;2023-08-17T12:59:57;21.50;99.90
15328;DHT22;7764;51.430;6.840;2023-08-17T13:02:24;21.30;99.90
15328;DHT22;7764;51.430;6.840;2023-08-17T13:04:53;21.30;99.90
15328;DHT22;7764;51.430;6.840;2023-08-17T13:07:20;21.20;99.90
15328;DHT22;7764;51.430;6.840;2023-08-17T13:09:47;21.30;99.90
15328;DHT22;7764;51.430;6.840;2023-08-17T13:12:14;21.40;99.90
15328;DHT22;7764;51.430;6.840;2023-08-17T13:14:40;21.30;99.90
15328;DHT22;7764;51.430;6.840;2023-08-17T13:17:10;21.20;99.90
15328;DHT22;7764;51.430;6.840;2023-08-17T13:19:37;21.00;99.90
15328;DHT22;7764;51.430;6.840;2023-08-17T13:22:04;21.50;99.90
15328;DHT22;7764;51.430;6.840;2023-08-17T13:24:31;21.30;99.90
15328;DHT22;7764;51.430;6.840;2023-08-17T13:26:58;21.20;99.90
15328;DHT22;7764;51.430;6.840;2023-08-17T13:29:25;21.40;99.90
15328;DHT22;7764;51.430;6.840;2023-08-17T13:31:51;21.00;99.90
15328;DHT22;7764;51.430;6.840;2023-08-17T13:34:20;21.50;99.90
15328;DHT22;7764;51.430;6.840;2023-08-17T13:36:47;21.40;99.90
15328;DHT22;7764;51.430;6.840;2023-08-17T13:39:14;21.30;99.90
15328;DHT22;7764;51.430;6.840;2023-08-17T13:41:41;21.40;99.90
15328;DHT22;7764;51.430;6.840;2023-08-17T13:44:08;21.30;99.90
15328;DHT22;7764;51.430;6.840;2023-08-17T13:46:35;21.30;99.90
15328;DHT22;7764;51.430;6.840;2023-08-17T13:49:04;21.30;99.90
15328;DHT22;7764;51.430;6.840;2023-08-17T13:51:34;21.50;99.90
15328;DHT22;7764;51.430;6.840;2023-08-17T13:54:01;21.40;99.90
15328;DHT22;7764;51.430;6.840;2023-08-17T13:56:29;21.70;99.90
15328;DHT22;7764;51.430;6.840;2023-08-17T13:58:55;21.30;99.90
15328;DHT22;7764;51.430;6.840;2023-08-17T14:01:22;21.40;99.90
15328;DHT22;7764;51.430;6.840;2023-08-17T14:03:49;21.50;99.90
15328;DHT22;7764;51.430;6.840;2023-08-17T14:06:16;21.40;99.90
15328;DHT22;7764;51.430;6.840;2023-08-17T14:08:44;21.50;99.90
15328;DHT22;7764;51.430;6.840;2023-08-17T14:11:11;21.40;99.90
15328;DHT22;7764;51.430;6.840;2023-08-17T14:13:40;21.50;99.90
15328;DHT22;7764;51.430;6.840;2023-08-17T14:16:07;21.50;99.90
15328;DHT22;7764;51.430;6.840;2023-08-17T14:18:34;21.50;99.90
15328;DHT22;7764;51.430;6.840;2023-08-17T14:21:00;21.60;99.90
15328;DHT22;7764;51.430;6.840;2023-08-17T14:23:27;21.80;99.90
15328;DHT22;7764;51.430;6.840;2023-08-17T14:25:56;21.70;99.90
15328;DHT22;7764;51.430;6.840;2023-08-17T14:28:23;21.60;99.90
15328;DHT22;7764;51.430;6.840;2023-08-17T14:30:52;21.60;99.90
15328;DHT22;7764;51.430;6.840;2023-08-17T14:33:19;21.70;99.90
15328;DHT22;7764;51.430;6.840;2023-08-17T14:35:46;22.00;99.90
15328;DHT22;7764;51.430;6.840;2023-08-17T14:38:14;22.00;99.90
15328;DHT22;7764;51.430;6.840;2023-08-17T14:40:43;22.10;99.90
15328;DHT22;7764;51.430;6.840;2023-08-17T14:43:12;22.00;99.90
15328;DHT22;7764;51.430;6.840;2023-08-17T14:45:40;21.90;99.90
15328;DHT22;7764;51.430;6.840;2023-08-17T14:48:08;22.20;99.90
15328;DHT22;7764;51.430;6.840;2023-08-17T14:50:35;21.70;99.90
15328;DHT22;7764;51.430;6.840;2023-08-17T14:53:04;21.60;99.90
15328;DHT22;7764;51.430;6.840;2023-08-17T14:55:32;21.80;99.90
15328;DHT22;7764;51.430;6.840;2023-08-17T14:57:59;21.90;99.90
15328;DHT22;7764;51.430;6.840;2023-08-17T15:00:28;22.00;99.90
15328;DHT22;7764;51.430;6.840;2023-08-17T15:02:56;22.00;99.90
15328;DHT22;7764;51.430;6.840;2023-08-17T15:05:24;22.10;99.90
15328;DHT22;7764;51.430;6.840;2023-08-17T15:07:51;22.30;99.90
15328;DHT22;7764;51.430;6.840;2023-08-17T15:10:18;22.30;99.90
15328;DHT22;7764;51.430;6.840;2023-08-17T15:12:46;22.10;99.90
15328;DHT22;7764;51.430;6.840;2023-08-17T15:15:13;22.20;99.90
15328;DHT22;7764;51.430;6.840;2023-08-17T15:17:41;22.20;99.90
15328;DHT22;7764;51.430;6.840;2023-08-17T15:20:09;22.10;99.90
15328;DHT22;7764;51.430;6.840;2023-08-17T15:22:36;22.20;99.90
15328;DHT22;7764;51.430;6.840;2023-08-17T15:25:03;22.10;99.90
15328;DHT22;7764;51.430;6.840;2023-08-17T15:27:31;22.40;99.90
15328;DHT22;7764;51.430;6.840;2023-08-17T15:29:58;22.20;99.90
15328;DHT22;7764;51.430;6.840;2023-08-17T15:32:25;22.40;99.90
15328;DHT22;7764;51.430;6.840;2023-08-17T15:34:53;22.60;99.90
15328;DHT22;7764;51.430;6.840;2023-08-17T15:37:20;22.30;99.90
15328;DHT22;7764;51.430;6.840;2023-08-17T15:39:48;22.30;99.90
15328;DHT22;7764;51.430;6.840;2023-08-17T15:42:15;22.30;99.90
15328;DHT22;7764;51.430;6.840;2023-08-17T15:44:42;22.30;99.90
15328;DHT22;7764;51.430;6.840;2023-08-17T15:47:09;22.10;99.90
15328;DHT22;7764;51.430;6.840;2023-08-17T15:49:36;22.00;99.90
15328;DHT22;7764;51.430;6.840;2023-08-17T15:52:05;22.30;99.90
15328;DHT22;7764;51.430;6.840;2023-08-17T15:54:32;22.20;99.90
15328;DHT22;7764;51.430;6.840;2023-08-17T15:56:59;22.20;99.90
15328;DHT22;7764;51.430;6.840;2023-08-17T15:59:26;22.20;99.90
15328;DHT22;7764;51.430;6.840;2023-08-17T16:01:53;22.00;99.90
15328;DHT22;7764;51.430;6.840;2023-08-17T16:04:20;22.00;99.90
15328;DHT22;7764;51.430;6.840;2023-08-17T16:06:47;22.10;99.90
15328;DHT22;7764;51.430;6.840;2023-08-17T16:09:15;22.00;99.90
15328;DHT22;7764;51.430;6.840;2023-08-17T16:11:42;22.10;99.90
15328;DHT22;7764;51.430;6.840;2023-08-17T16:14:09;21.90;99.90
15328;DHT22;7764;51.430;6.840;2023-08-17T16:16:36;22.30;99.90
15328;DHT22;7764;51.430;6.840;2023-08-17T16:19:03;22.10;99.90